createdAt,value
2019-01-16T00:01:28.772Z,8.23
2019-01-16T00:04:14.108Z,11.73
2019-01-16T00:07:00.472Z,10.47
2019-01-16T00:09:39.010Z,8.33
2019-01-16T00:12:25.302Z,7.40
2019-01-16T00:15:04.865Z,11.00
2019-01-16T00:17:50.963Z,12.20
2019-01-16T00:20:32.447Z,11.23
2019-01-16T00:23:18.773Z,9.73
2019-01-16T00:26:06.409Z,11.57
2019-01-16T00:28:54.014Z,9.17
2019-01-16T00:31:33.411Z,14.30
2019-01-16T00:34:23.646Z,8.13
2019-01-16T00:37:08.693Z,9.77
2019-01-16T00:39:58.917Z,11.57
2019-01-16T00:42:44.978Z,7.67
2019-01-16T00:45:32.571Z,12.73
2019-01-16T00:48:24.518Z,8.97
2019-01-16T00:51:01.229Z,11.50
2019-01-16T00:53:51.638Z,10.07
2019-01-16T00:56:31.953Z,10.43
2019-01-16T00:59:17.715Z,8.90
2019-01-16T01:02:11.189Z,8.37
2019-01-16T01:04:57.133Z,11.83
2019-01-16T01:07:44.725Z,9.73
2019-01-16T01:10:23.227Z,13.47
2019-01-16T01:13:02.066Z,10.27
2019-01-16T01:15:41.336Z,7.60
2019-01-16T01:18:32.188Z,10.27
2019-01-16T01:21:15.313Z,8.07
2019-01-16T01:24:08.694Z,9.70
2019-01-16T01:26:54.487Z,8.67
2019-01-16T01:29:45.623Z,11.27
2019-01-16T01:32:31.507Z,8.40
2019-01-16T01:35:19.146Z,10.40
2019-01-16T01:38:05.304Z,9.77
2019-01-16T01:40:51.118Z,11.30
2019-01-16T01:43:47.750Z,11.60
2019-01-16T01:46:33.850Z,9.97
2019-01-16T01:49:21.196Z,11.50
2019-01-16T01:52:11.586Z,10.67
2019-01-16T01:54:50.050Z,12.47
2019-01-16T01:57:30.810Z,9.23
2019-01-16T02:00:14.250Z,10.03
2019-01-16T02:03:13.737Z,6.50
2019-01-16T02:06:10.374Z,5.30
2019-01-16T02:08:56.286Z,5.47
2019-01-16T02:11:49.612Z,5.77
2019-01-16T02:14:37.277Z,4.80
2019-01-16T02:17:29.597Z,10.60
2019-01-16T02:20:20.050Z,8.67
2019-01-16T02:23:10.728Z,9.90
2019-01-16T02:25:52.660Z,8.10
2019-01-16T02:28:40.309Z,11.83
2019-01-16T02:31:33.560Z,11.33
2019-01-16T02:34:28.783Z,17.07
2019-01-16T02:37:16.977Z,15.73
2019-01-16T02:40:13.514Z,15.43
2019-01-16T02:43:06.712Z,19.50
2019-01-16T02:45:53.108Z,18.00
2019-01-16T02:48:55.818Z,21.63
2019-01-16T02:51:44.817Z,22.57
2019-01-16T02:54:35.108Z,25.10
2019-01-16T02:57:15.934Z,21.10
2019-01-16T03:00:12.073Z,20.30
2019-01-16T03:03:17.662Z,22.83
2019-01-16T03:06:08.022Z,22.53
2019-01-16T03:08:54.603Z,22.17
2019-01-16T03:11:43.450Z,21.80
2019-01-16T03:14:31.076Z,25.80
2019-01-16T03:17:11.041Z,19.97
2019-01-16T03:26:24.873Z,25.70
2019-01-16T03:29:09.109Z,25.80
2019-01-16T03:32:03.554Z,27.30
2019-01-16T03:34:49.485Z,23.67
2019-01-16T03:37:29.567Z,27.10
2019-01-16T03:40:23.026Z,24.97
2019-01-16T03:43:19.559Z,24.50
2019-01-16T03:46:07.143Z,26.53
2019-01-16T03:49:00.426Z,27.23
2019-01-16T03:51:48.010Z,23.67
2019-01-16T03:54:32.996Z,29.20
2019-01-16T03:57:09.414Z,28.47
2019-01-16T03:59:55.347Z,23.10
2019-01-16T04:02:41.447Z,26.10
2019-01-16T04:05:19.524Z,24.13
2019-01-16T04:08:05.254Z,20.63
2019-01-16T04:10:51.364Z,22.30
2019-01-16T04:13:44.667Z,21.33
2019-01-16T04:16:30.791Z,24.97
2019-01-16T04:19:24.072Z,30.23
2019-01-16T04:22:08.879Z,24.43
2019-01-16T04:24:55.053Z,27.33
2019-01-16T04:27:34.521Z,28.57
2019-01-16T04:30:20.997Z,27.50
2019-01-16T04:33:17.835Z,28.97
2019-01-16T04:35:58.693Z,27.93
2019-01-16T04:38:52.203Z,31.17
2019-01-16T04:41:39.791Z,31.07
2019-01-16T04:44:30.402Z,35.80
2019-01-16T04:47:20.894Z,34.93
2019-01-16T04:50:14.242Z,34.93
2019-01-16T04:52:58.572Z,37.57
2019-01-16T04:55:57.448Z,34.53
2019-01-16T04:59:02.711Z,30.73
2019-01-16T05:01:56.232Z,32.97
2019-01-16T05:04:39.415Z,29.33
2019-01-16T05:07:32.632Z,30.50
2019-01-16T05:10:32.168Z,28.70
2019-01-16T05:13:22.339Z,33.20
2019-01-16T05:16:03.910Z,27.97
2019-01-16T05:18:55.076Z,29.83
2019-01-16T05:22:00.502Z,30.37
2019-01-16T05:24:50.689Z,30.67
2019-01-16T05:27:36.875Z,30.20
2019-01-16T05:30:28.627Z,29.63
2019-01-16T05:33:05.372Z,30.30
2019-01-16T05:35:55.629Z,29.13
2019-01-16T05:38:38.563Z,27.00
2019-01-16T05:41:24.807Z,29.07
2019-01-16T05:44:18.107Z,28.30
2019-01-16T05:47:11.823Z,30.00
2019-01-16T05:49:59.414Z,33.13
2019-01-16T05:52:58.661Z,33.73
2019-01-16T05:55:37.872Z,27.87
2019-01-16T05:58:16.938Z,29.27
2019-01-16T06:01:14.572Z,32.63
2019-01-16T06:04:00.623Z,30.87
2019-01-16T06:06:46.343Z,30.77
2019-01-16T06:09:26.192Z,34.87
2019-01-16T06:12:12.454Z,27.63
2019-01-16T06:15:00.240Z,29.47
2019-01-16T06:17:56.768Z,27.67
2019-01-16T06:20:45.054Z,31.07
2019-01-16T06:23:30.614Z,27.50
2019-01-16T06:26:20.754Z,32.93
2019-01-16T06:29:11.506Z,25.90
2019-01-16T06:31:59.126Z,27.97
2019-01-16T06:34:46.719Z,26.80
2019-01-16T06:37:34.339Z,28.20
2019-01-16T06:40:20.515Z,26.50
2019-01-16T06:42:58.452Z,29.50
2019-01-16T06:45:37.216Z,27.13
2019-01-16T06:48:27.472Z,26.73
2019-01-16T06:51:15.083Z,26.07
2019-01-16T06:54:05.638Z,28.93
2019-01-16T06:56:53.259Z,30.17
2019-01-16T06:59:39.463Z,27.77
2019-01-16T07:02:30.921Z,24.70
2019-01-16T07:05:18.624Z,29.50
2019-01-16T07:08:04.699Z,25.80
2019-01-16T07:10:51.534Z,25.60
2019-01-16T07:13:39.178Z,24.40
2019-01-16T07:16:18.547Z,23.50
2019-01-16T07:19:04.602Z,25.83
2019-01-16T07:21:54.031Z,21.57
2019-01-16T07:24:59.442Z,20.40
2019-01-16T07:27:53.389Z,19.53
2019-01-16T07:30:39.105Z,22.70
2019-01-16T07:33:25.179Z,23.63
2019-01-16T07:36:21.606Z,20.87
2019-01-16T07:39:01.094Z,18.97
2019-01-16T07:41:54.295Z,21.93
2019-01-16T07:44:53.633Z,19.67
2019-01-16T07:47:38.682Z,17.37
2019-01-16T07:50:27.213Z,17.80
2019-01-16T07:53:20.610Z,20.20
2019-01-16T07:56:04.498Z,18.13
2019-01-16T07:58:50.250Z,17.77
2019-01-16T08:01:32.898Z,17.57
2019-01-16T08:04:19.097Z,16.87
2019-01-16T08:07:18.264Z,13.87
2019-01-16T08:10:11.842Z,18.17
2019-01-16T08:13:17.425Z,15.77
2019-01-16T08:16:03.430Z,18.13
2019-01-16T08:18:56.793Z,20.37
2019-01-16T08:21:42.802Z,15.87
2019-01-16T08:24:27.122Z,18.60
2019-01-16T08:27:08.603Z,15.63
2019-01-16T08:29:48.452Z,16.73
2019-01-16T08:32:25.938Z,17.77
2019-01-16T08:35:19.050Z,18.17
2019-01-16T08:38:05.162Z,18.57
2019-01-16T08:41:01.693Z,20.30
2019-01-16T08:43:47.834Z,19.17
2019-01-16T08:46:35.436Z,15.80
2019-01-16T08:49:40.829Z,16.07
2019-01-16T08:52:26.698Z,17.23
2019-01-16T08:55:16.855Z,18.20
2019-01-16T08:58:06.967Z,17.70
2019-01-16T09:00:52.255Z,20.43
2019-01-16T09:03:54.792Z,14.77
2019-01-16T09:06:33.185Z,18.07
2019-01-16T09:09:18.913Z,20.07
2019-01-16T09:12:05.133Z,15.53
2019-01-16T09:14:55.600Z,18.37
2019-01-16T09:17:43.216Z,20.30
2019-01-16T09:20:23.668Z,17.03
2019-01-16T09:23:15.098Z,13.30
2019-01-16T09:26:02.738Z,17.23
2019-01-16T09:28:53.207Z,12.53
2019-01-16T09:31:46.434Z,13.40
2019-01-16T09:34:34.049Z,19.23
2019-01-16T09:37:21.650Z,13.63
2019-01-16T09:40:07.538Z,18.70
2019-01-16T09:42:47.827Z,16.43
2019-01-16T09:45:33.725Z,14.93
2019-01-16T09:48:19.878Z,14.13
2019-01-16T09:51:19.463Z,15.37
2019-01-16T09:54:05.519Z,17.97
2019-01-16T09:57:00.598Z,14.57
2019-01-16T09:59:46.720Z,16.53
2019-01-16T10:02:28.734Z,18.50
2019-01-16T10:05:20.652Z,15.57
2019-01-16T10:08:11.482Z,15.50
2019-01-16T10:11:01.271Z,14.17
2019-01-16T10:13:48.886Z,12.10
2019-01-16T10:16:36.596Z,16.93
2019-01-16T10:19:38.882Z,17.47
2019-01-16T10:22:29.060Z,17.47
2019-01-16T10:25:22.574Z,16.73
2019-01-16T10:28:09.392Z,17.33
2019-01-16T10:31:05.618Z,15.60
2019-01-16T10:34:04.938Z,18.53
2019-01-16T10:36:51.025Z,15.60
2019-01-16T10:39:38.653Z,12.97
2019-01-16T10:42:21.220Z,21.33
2019-01-16T10:44:54.214Z,17.97
2019-01-16T10:47:40.000Z,16.07
2019-01-16T10:50:26.482Z,19.57
2019-01-16T10:53:12.226Z,16.33
2019-01-16T10:55:51.268Z,18.70
2019-01-16T10:58:38.933Z,18.00
2019-01-16T11:01:35.631Z,16.83
2019-01-16T11:04:21.726Z,16.97
2019-01-16T11:07:12.023Z,20.13
2019-01-16T11:09:57.972Z,18.73
2019-01-16T11:12:51.175Z,17.63
2019-01-16T11:15:31.983Z,17.03
2019-01-16T11:18:28.786Z,17.37
2019-01-16T11:21:11.117Z,21.67
2019-01-16T11:23:56.754Z,20.70
2019-01-16T11:26:56.507Z,20.03
2019-01-16T11:29:55.949Z,18.60
2019-01-16T11:32:43.565Z,19.93
2019-01-16T11:35:43.180Z,18.83
2019-01-16T11:38:29.219Z,21.13
2019-01-16T11:41:15.134Z,16.33
2019-01-16T11:44:10.840Z,17.23
2019-01-16T11:47:04.369Z,18.47
2019-01-16T11:49:50.651Z,20.97
2019-01-16T11:52:36.662Z,18.37
2019-01-16T11:55:24.423Z,20.83
2019-01-16T11:58:21.062Z,19.60
2019-01-16T12:01:07.217Z,23.77
2019-01-16T12:03:53.239Z,17.63
2019-01-16T12:06:39.101Z,20.80
2019-01-16T12:09:32.271Z,21.70
2019-01-16T12:12:17.795Z,22.60
2019-01-16T12:15:00.750Z,19.93
2019-01-16T12:17:50.808Z,20.00
2019-01-16T12:20:26.277Z,21.87
2019-01-16T12:23:19.860Z,21.83
2019-01-16T12:25:57.965Z,24.50
2019-01-16T12:28:44.498Z,24.30
2019-01-16T12:31:41.035Z,18.93
2019-01-16T12:34:34.205Z,19.17
2019-01-16T12:37:27.853Z,20.27
2019-01-16T12:40:12.659Z,21.03
2019-01-16T12:43:00.275Z,20.87
2019-01-16T12:46:02.877Z,19.07
2019-01-16T12:48:48.903Z,19.37
2019-01-16T12:51:36.550Z,22.63
2019-01-16T12:54:24.145Z,21.07
2019-01-16T12:57:14.487Z,23.20
2019-01-16T12:59:52.275Z,19.73
2019-01-16T13:02:37.414Z,24.40
2019-01-16T13:05:19.330Z,20.53
2019-01-16T13:08:21.982Z,19.70
2019-01-16T13:11:07.830Z,18.90
2019-01-16T13:13:55.433Z,24.80
2019-01-16T13:16:32.815Z,22.50
2019-01-16T13:19:23.352Z,21.83
2019-01-16T13:22:10.226Z,24.53
2019-01-16T13:24:57.834Z,25.03
2019-01-16T13:27:43.694Z,27.10
2019-01-16T13:30:44.703Z,24.40
2019-01-16T13:33:37.966Z,25.60
2019-01-16T13:36:31.681Z,29.30
2019-01-16T13:39:21.790Z,22.47
2019-01-16T13:41:59.866Z,28.03
2019-01-16T13:44:51.603Z,22.67
2019-01-16T13:47:41.874Z,23.47
2019-01-16T13:50:32.584Z,26.93
2019-01-16T13:53:22.969Z,26.17
2019-01-16T13:56:09.083Z,25.47
2019-01-16T13:58:55.228Z,27.73
2019-01-16T14:01:34.282Z,25.63
2019-01-16T14:04:27.759Z,26.60
2019-01-16T14:07:13.864Z,27.30
2019-01-16T14:10:04.143Z,29.27
2019-01-16T14:13:03.717Z,26.37
2019-01-16T14:15:48.506Z,29.17
2019-01-16T14:18:34.643Z,25.27
2019-01-16T14:21:40.303Z,25.43
2019-01-16T14:24:27.950Z,31.00
2019-01-16T14:27:09.083Z,30.00
2019-01-16T14:29:59.046Z,27.33
2019-01-16T14:32:47.541Z,27.67
2019-01-16T14:35:41.446Z,27.90
2019-01-16T14:38:27.502Z,30.70
2019-01-16T14:41:13.451Z,30.17
2019-01-16T14:44:04.119Z,24.23
2019-01-16T14:46:54.334Z,27.70
2019-01-16T14:49:42.658Z,26.23
2019-01-16T14:52:23.449Z,24.93
2019-01-16T14:55:23.322Z,27.73
2019-01-16T14:58:16.597Z,25.13
2019-01-16T15:01:04.552Z,24.33
2019-01-16T15:03:55.303Z,25.53
2019-01-16T15:06:39.989Z,26.97
2019-01-16T15:09:27.944Z,24.03
2019-01-16T15:12:21.189Z,23.30
2019-01-16T15:15:10.259Z,22.73
2019-01-16T15:18:15.625Z,25.27
2019-01-16T15:20:54.422Z,22.23
2019-01-16T15:23:33.222Z,21.93
2019-01-16T15:26:20.923Z,25.63
2019-01-16T15:29:03.661Z,20.73
2019-01-16T15:31:47.190Z,25.90
2019-01-16T15:34:37.505Z,23.90
2019-01-16T15:37:34.004Z,26.03
2019-01-16T15:40:27.268Z,26.83
2019-01-16T15:43:06.794Z,27.23
2019-01-16T15:45:48.072Z,23.87
2019-01-16T15:48:36.606Z,29.20
2019-01-16T15:51:22.665Z,23.53
2019-01-16T15:54:12.958Z,24.03
2019-01-16T15:57:09.550Z,25.20
2019-01-16T16:00:08.938Z,22.50
2019-01-16T16:03:08.566Z,21.70
2019-01-16T16:05:54.466Z,23.43
2019-01-16T16:08:53.772Z,23.47
2019-01-16T16:11:59.390Z,22.97
2019-01-16T16:14:45.408Z,21.33
2019-01-16T16:17:33.199Z,21.80
2019-01-16T16:20:23.638Z,19.23
2019-01-16T16:23:31.790Z,21.90
2019-01-16T16:26:19.426Z,22.83
2019-01-16T16:29:03.158Z,20.93
2019-01-16T16:31:49.297Z,22.43
2019-01-16T16:34:30.683Z,21.00
2019-01-16T16:37:26.620Z,18.80
2019-01-16T16:40:02.138Z,20.53
2019-01-16T16:42:48.377Z,23.47
2019-01-16T16:45:34.314Z,22.93
2019-01-16T16:48:21.377Z,21.07
2019-01-16T16:50:59.000Z,20.67
2019-01-16T16:53:58.946Z,22.33
2019-01-16T16:56:45.658Z,26.00
2019-01-16T16:59:33.296Z,24.77
2019-01-16T17:02:14.554Z,25.03
2019-01-16T17:04:57.642Z,23.53
2019-01-16T17:08:00.247Z,19.90
2019-01-16T17:10:53.890Z,23.97
2019-01-16T17:13:47.615Z,22.47
2019-01-16T17:16:23.055Z,24.23
2019-01-16T17:19:16.252Z,24.43
2019-01-16T17:22:13.692Z,26.27
2019-01-16T17:25:02.708Z,25.00
2019-01-16T17:27:52.962Z,25.83
2019-01-16T17:30:43.882Z,27.80
2019-01-16T17:33:22.584Z,24.40
2019-01-16T17:36:15.822Z,33.03
2019-01-16T17:38:57.175Z,26.23
2019-01-16T17:41:34.462Z,28.30
2019-01-16T17:44:22.151Z,24.97
2019-01-16T17:47:21.844Z,30.33
2019-01-16T17:50:18.304Z,29.80
2019-01-16T17:53:05.922Z,31.37
2019-01-16T17:55:55.649Z,33.60
2019-01-16T17:58:58.173Z,33.47
2019-01-16T18:01:48.734Z,32.63
2019-01-16T18:04:27.216Z,28.77
2019-01-16T18:07:29.702Z,33.43
2019-01-16T18:10:13.186Z,31.30
2019-01-16T18:13:03.578Z,34.83
2019-01-16T18:15:51.247Z,34.30
2019-01-16T18:18:35.249Z,33.73
2019-01-16T18:21:28.366Z,38.37
2019-01-16T18:24:30.761Z,37.73
2019-01-16T18:27:17.070Z,35.20
2019-01-16T18:30:03.101Z,33.77
2019-01-16T18:32:50.729Z,35.07
2019-01-16T18:35:41.462Z,30.47
2019-01-16T18:38:25.124Z,33.90
2019-01-16T18:41:12.146Z,34.83
2019-01-16T18:43:50.879Z,30.47
2019-01-16T18:46:44.043Z,43.97
2019-01-16T18:49:37.242Z,39.10
2019-01-16T18:52:27.562Z,36.97
2019-01-16T18:55:20.999Z,35.93
2019-01-16T18:58:04.653Z,45.13
2019-01-16T19:00:50.573Z,40.80
2019-01-16T19:03:36.810Z,37.87
2019-01-16T19:06:23.014Z,36.40
2019-01-16T19:09:13.388Z,40.03
2019-01-16T19:11:59.179Z,37.13
2019-01-16T19:14:46.779Z,38.70
2019-01-16T19:17:27.638Z,31.03
2019-01-16T19:20:13.505Z,42.47
2019-01-16T19:23:03.752Z,39.93
2019-01-16T19:26:00.955Z,41.30
2019-01-16T19:28:47.149Z,44.43
2019-01-16T19:31:34.762Z,41.37
2019-01-16T19:34:25.181Z,41.00
2019-01-16T19:37:12.773Z,42.43
2019-01-16T19:39:51.763Z,47.33
2019-01-16T19:42:44.899Z,47.17
2019-01-16T19:45:44.532Z,52.47
2019-01-16T19:48:44.102Z,49.30
2019-01-16T19:51:24.191Z,51.13
2019-01-16T19:54:10.059Z,47.03
2019-01-16T19:56:56.022Z,46.53
2019-01-16T19:59:49.681Z,44.90
2019-01-16T20:02:35.792Z,39.37
2019-01-16T20:05:27.838Z,46.57
2019-01-16T20:08:11.280Z,42.57
2019-01-16T20:10:49.741Z,41.93
2019-01-16T20:13:37.456Z,39.67
2019-01-16T20:16:23.257Z,36.77
2019-01-16T20:19:13.295Z,46.30
2019-01-16T20:21:51.711Z,42.53
2019-01-16T20:24:42.211Z,37.10
2019-01-16T20:27:44.729Z,44.20
2019-01-16T20:30:27.302Z,34.63
2019-01-16T20:33:20.666Z,36.30
2019-01-16T20:36:08.290Z,35.80
2019-01-16T20:38:58.725Z,40.03
2019-01-16T20:41:49.007Z,35.90
2019-01-16T20:44:34.814Z,39.40
2019-01-16T20:47:25.430Z,38.20
2019-01-16T20:50:11.345Z,41.53
2019-01-16T20:52:58.982Z,41.90
2019-01-16T20:55:46.596Z,38.03
2019-01-16T20:58:52.342Z,41.70
2019-01-16T21:01:48.709Z,35.87
2019-01-16T21:04:34.628Z,40.17
2019-01-16T21:07:11.945Z,37.27
2019-01-16T21:09:59.668Z,35.53
2019-01-16T21:12:48.086Z,34.63
2019-01-16T21:15:37.890Z,38.17
2019-01-16T21:18:31.095Z,32.27
2019-01-16T21:21:17.208Z,21.93
2019-01-16T21:23:54.915Z,11.37
2019-01-16T21:26:45.455Z,6.67
2019-01-16T21:29:35.952Z,9.33
2019-01-16T21:32:17.418Z,2.60
2019-01-16T21:34:54.180Z,5.77
2019-01-16T21:37:44.586Z,4.53
2019-01-16T21:40:32.660Z,6.97
2019-01-16T21:43:12.714Z,6.50
2019-01-16T21:45:58.598Z,7.97
2019-01-16T21:48:39.735Z,8.17
2019-01-16T21:51:45.242Z,4.20
2019-01-16T21:54:21.192Z,6.83
2019-01-16T21:57:14.908Z,7.37
2019-01-16T22:00:02.538Z,7.07
2019-01-16T22:02:50.163Z,7.30
2019-01-16T22:05:43.774Z,7.07
2019-01-16T22:08:19.098Z,5.97
2019-01-16T22:11:12.378Z,7.27
2019-01-16T22:13:48.107Z,8.60
2019-01-16T22:16:25.055Z,10.90
2019-01-16T22:19:15.266Z,9.10
2019-01-16T22:22:05.602Z,8.57
2019-01-16T22:24:51.768Z,4.77
2019-01-16T22:27:54.021Z,5.70
2019-01-16T22:30:52.940Z,6.90
2019-01-16T22:33:40.554Z,7.30
2019-01-16T22:36:40.072Z,6.93
2019-01-16T22:39:30.242Z,7.63
2019-01-16T22:42:26.438Z,7.37
2019-01-16T22:45:05.945Z,4.57
2019-01-16T22:47:53.543Z,3.50
2019-01-16T22:50:38.554Z,9.37
2019-01-16T22:53:34.858Z,2.40
2019-01-16T22:56:20.890Z,10.90
2019-01-16T22:59:10.326Z,7.63
2019-01-16T23:01:54.902Z,7.03
2019-01-16T23:04:41.134Z,3.37
2019-01-16T23:07:27.330Z,7.33
2019-01-16T23:10:07.088Z,4.93
2019-01-16T23:12:53.294Z,7.40
2019-01-16T23:15:47.507Z,4.13
2019-01-16T23:18:35.134Z,9.23
2019-01-16T23:21:09.755Z,6.07
2019-01-16T23:23:59.959Z,5.77
2019-01-16T23:26:59.455Z,6.97
2019-01-16T23:29:50.443Z,8.47
2019-01-16T23:32:41.340Z,4.33
2019-01-16T23:35:19.983Z,6.67
2019-01-16T23:38:22.450Z,5.93
2019-01-16T23:41:04.589Z,5.67
2019-01-16T23:44:06.498Z,9.20
2019-01-16T23:46:57.649Z,3.97
2019-01-16T23:49:45.232Z,3.50
2019-01-16T23:52:19.333Z,7.70
2019-01-16T23:55:06.925Z,7.73
2019-01-16T23:57:52.845Z,9.37
